sensor_id;sensor_type;location;lat;lon;timestamp;P1;durP1;ratioP1;P2;durP2;ratioP2
6113;SDS011;3087;48.392;10.836;2023-03-01T00:01:10;19.43;;;14.90;;
6113;SDS011;3087;48.392;10.836;2023-03-01T00:03:37;19.13;;;14.23;;
6113;SDS011;3087;48.392;10.836;2023-03-01T00:06:04;18.30;;;14.17;;
6113;SDS011;3087;48.392;10.836;2023-03-01T00:08:30;20.43;;;15.10;;
6113;SDS011;3087;48.392;10.836;2023-03-01T00:11:17;18.13;;;13.83;;
6113;SDS011;3087;48.392;10.836;2023-03-01T00:13:48;19.33;;;14.33;;
6113;SDS011;3087;48.392;10.836;2023-03-01T00:16:18;19.50;;;14.67;;
6113;SDS011;3087;48.392;10.836;2023-03-01T00:18:46;19.30;;;15.10;;
6113;SDS011;3087;48.392;10.836;2023-03-01T00:21:11;21.57;;;14.40;;
6113;SDS011;3087;48.392;10.836;2023-03-01T00:23:37;18.50;;;15.73;;
6113;SDS011;3087;48.392;10.836;2023-03-01T00:26:07;19.10;;;14.87;;
6113;SDS011;3087;48.392;10.836;2023-03-01T00:28:34;18.87;;;14.17;;
6113;SDS011;3087;48.392;10.836;2023-03-01T00:31:08;19.53;;;13.83;;
6113;SDS011;3087;48.392;10.836;2023-03-01T00:33:36;20.93;;;14.23;;
6113;SDS011;3087;48.392;10.836;2023-03-01T00:36:01;18.17;;;13.40;;
6113;SDS011;3087;48.392;10.836;2023-03-01T00:38:28;19.90;;;14.60;;
6113;SDS011;3087;48.392;10.836;2023-03-01T00:40:54;18.47;;;14.03;;
6113;SDS011;3087;48.392;10.836;2023-03-01T00:43:20;20.60;;;14.53;;
6113;SDS011;3087;48.392;10.836;2023-03-01T00:45:46;23.23;;;15.53;;
6113;SDS011;3087;48.392;10.836;2023-03-01T00:48:11;22.60;;;15.97;;
6113;SDS011;3087;48.392;10.836;2023-03-01T00:50:37;19.23;;;14.93;;
6113;SDS011;3087;48.392;10.836;2023-03-01T00:53:02;22.77;;;14.63;;
6113;SDS011;3087;48.392;10.836;2023-03-01T00:55:29;18.47;;;14.63;;
6113;SDS011;3087;48.392;10.836;2023-03-01T00:57:55;20.47;;;15.20;;
6113;SDS011;3087;48.392;10.836;2023-03-01T01:00:21;19.90;;;15.63;;
6113;SDS011;3087;48.392;10.836;2023-03-01T01:02:46;20.37;;;14.60;;
6113;SDS011;3087;48.392;10.836;2023-03-01T01:05:12;20.77;;;14.97;;
6113;SDS011;3087;48.392;10.836;2023-03-01T01:07:38;17.53;;;14.60;;
6113;SDS011;3087;48.392;10.836;2023-03-01T01:10:04;24.57;;;15.23;;
6113;SDS011;3087;48.392;10.836;2023-03-01T01:12:31;19.50;;;14.60;;
6113;SDS011;3087;48.392;10.836;2023-03-01T01:14:57;20.07;;;15.10;;
6113;SDS011;3087;48.392;10.836;2023-03-01T01:17:23;20.00;;;15.17;;
6113;SDS011;3087;48.392;10.836;2023-03-01T01:19:48;18.23;;;14.33;;
6113;SDS011;3087;48.392;10.836;2023-03-01T01:22:14;19.07;;;14.67;;
6113;SDS011;3087;48.392;10.836;2023-03-01T01:24:40;21.27;;;15.00;;
6113;SDS011;3087;48.392;10.836;2023-03-01T01:27:05;20.70;;;14.07;;
6113;SDS011;3087;48.392;10.836;2023-03-01T01:29:32;20.50;;;15.03;;
6113;SDS011;3087;48.392;10.836;2023-03-01T01:31:57;18.10;;;15.17;;
6113;SDS011;3087;48.392;10.836;2023-03-01T01:34:23;19.10;;;14.73;;
6113;SDS011;3087;48.392;10.836;2023-03-01T01:36:52;20.90;;;15.63;;
6113;SDS011;3087;48.392;10.836;2023-03-01T01:39:19;21.73;;;15.20;;
6113;SDS011;3087;48.392;10.836;2023-03-01T01:41:45;18.63;;;14.43;;
6113;SDS011;3087;48.392;10.836;2023-03-01T01:44:25;19.67;;;15.00;;
6113;SDS011;3087;48.392;10.836;2023-03-01T01:54:54;19.90;;;14.60;;
6113;SDS011;3087;48.392;10.836;2023-03-01T01:57:22;22.43;;;16.13;;
6113;SDS011;3087;48.392;10.836;2023-03-01T01:59:53;23.90;;;15.40;;
6113;SDS011;3087;48.392;10.836;2023-03-01T02:02:22;19.73;;;14.07;;
6113;SDS011;3087;48.392;10.836;2023-03-01T02:04:49;18.10;;;14.27;;
6113;SDS011;3087;48.392;10.836;2023-03-01T02:07:23;23.17;;;16.00;;
6113;SDS011;3087;48.392;10.836;2023-03-01T02:09:51;18.23;;;14.10;;
6113;SDS011;3087;48.392;10.836;2023-03-01T02:12:20;19.30;;;15.10;;
6113;SDS011;3087;48.392;10.836;2023-03-01T02:14:48;23.60;;;15.60;;
6113;SDS011;3087;48.392;10.836;2023-03-01T02:17:14;17.60;;;13.97;;
6113;SDS011;3087;48.392;10.836;2023-03-01T02:19:44;19.60;;;15.43;;
6113;SDS011;3087;48.392;10.836;2023-03-01T02:22:18;20.60;;;14.93;;
6113;SDS011;3087;48.392;10.836;2023-03-01T02:27:36;23.00;;;15.93;;
6113;SDS011;3087;48.392;10.836;2023-03-01T02:30:10;20.47;;;14.57;;
6113;SDS011;3087;48.392;10.836;2023-03-01T02:32:37;21.30;;;15.93;;
6113;SDS011;3087;48.392;10.836;2023-03-01T02:35:06;19.60;;;15.17;;
6113;SDS011;3087;48.392;10.836;2023-03-01T02:37:38;19.53;;;14.43;;
6113;SDS011;3087;48.392;10.836;2023-03-01T02:40:07;20.43;;;15.43;;
6113;SDS011;3087;48.392;10.836;2023-03-01T02:42:45;22.07;;;15.47;;
6113;SDS011;3087;48.392;10.836;2023-03-01T02:45:16;20.37;;;14.43;;
6113;SDS011;3087;48.392;10.836;2023-03-01T02:47:41;19.30;;;14.90;;
6113;SDS011;3087;48.392;10.836;2023-03-01T02:50:23;22.13;;;15.60;;
6113;SDS011;3087;48.392;10.836;2023-03-01T02:53:40;22.87;;;15.43;;
6113;SDS011;3087;48.392;10.836;2023-03-01T02:55:48;21.53;;;15.73;;
6113;SDS011;3087;48.392;10.836;2023-03-01T02:58:14;19.33;;;14.37;;
6113;SDS011;3087;48.392;10.836;2023-03-01T03:00:41;19.57;;;14.53;;
6113;SDS011;3087;48.392;10.836;2023-03-01T03:03:15;20.47;;;14.27;;
6113;SDS011;3087;48.392;10.836;2023-03-01T03:05:45;20.07;;;15.03;;
6113;SDS011;3087;48.392;10.836;2023-03-01T03:08:10;23.73;;;15.67;;
6113;SDS011;3087;48.392;10.836;2023-03-01T03:10:37;17.73;;;13.67;;
6113;SDS011;3087;48.392;10.836;2023-03-01T03:13:08;20.13;;;15.37;;
6113;SDS011;3087;48.392;10.836;2023-03-01T03:15:36;23.00;;;15.60;;
6113;SDS011;3087;48.392;10.836;2023-03-01T03:18:04;22.93;;;15.63;;
6113;SDS011;3087;48.392;10.836;2023-03-01T03:20:31;19.97;;;15.73;;
6113;SDS011;3087;48.392;10.836;2023-03-01T03:22:58;21.27;;;15.83;;
6113;SDS011;3087;48.392;10.836;2023-03-01T03:25:24;20.00;;;14.97;;
6113;SDS011;3087;48.392;10.836;2023-03-01T03:27:52;20.80;;;15.73;;
6113;SDS011;3087;48.392;10.836;2023-03-01T03:30:22;19.10;;;14.90;;
6113;SDS011;3087;48.392;10.836;2023-03-01T03:32:49;21.80;;;14.60;;
6113;SDS011;3087;48.392;10.836;2023-03-01T03:35:27;19.63;;;14.83;;
6113;SDS011;3087;48.392;10.836;2023-03-01T03:37:55;21.13;;;15.60;;
6113;SDS011;3087;48.392;10.836;2023-03-01T03:40:28;21.10;;;15.20;;
6113;SDS011;3087;48.392;10.836;2023-03-01T03:42:59;20.63;;;13.87;;
6113;SDS011;3087;48.392;10.836;2023-03-01T03:45:24;21.00;;;15.17;;
6113;SDS011;3087;48.392;10.836;2023-03-01T03:47:50;20.83;;;15.77;;
6113;SDS011;3087;48.392;10.836;2023-03-01T03:50:16;23.97;;;16.33;;
6113;SDS011;3087;48.392;10.836;2023-03-01T03:52:43;23.17;;;15.23;;
6113;SDS011;3087;48.392;10.836;2023-03-01T03:55:09;23.07;;;15.07;;
6113;SDS011;3087;48.392;10.836;2023-03-01T03:57:41;22.40;;;15.33;;
6113;SDS011;3087;48.392;10.836;2023-03-01T04:00:10;21.93;;;16.37;;
6113;SDS011;3087;48.392;10.836;2023-03-01T04:02:39;21.67;;;16.00;;
6113;SDS011;3087;48.392;10.836;2023-03-01T04:05:06;21.17;;;16.03;;
6113;SDS011;3087;48.392;10.836;2023-03-01T04:07:33;19.93;;;14.07;;
6113;SDS011;3087;48.392;10.836;2023-03-01T04:10:00;20.13;;;15.90;;
6113;SDS011;3087;48.392;10.836;2023-03-01T04:12:27;24.10;;;15.20;;
6113;SDS011;3087;48.392;10.836;2023-03-01T04:14:53;21.50;;;15.50;;
6113;SDS011;3087;48.392;10.836;2023-03-01T04:17:19;21.23;;;15.30;;
6113;SDS011;3087;48.392;10.836;2023-03-01T04:19:44;19.67;;;15.03;;
6113;SDS011;3087;48.392;10.836;2023-03-01T04:22:13;21.00;;;15.33;;
6113;SDS011;3087;48.392;10.836;2023-03-01T04:24:42;20.90;;;15.27;;
6113;SDS011;3087;48.392;10.836;2023-03-01T04:27:08;19.63;;;15.17;;
6113;SDS011;3087;48.392;10.836;2023-03-01T04:29:34;19.53;;;14.93;;
6113;SDS011;3087;48.392;10.836;2023-03-01T04:31:59;19.57;;;14.63;;
6113;SDS011;3087;48.392;10.836;2023-03-01T04:34:25;23.47;;;16.17;;
6113;SDS011;3087;48.392;10.836;2023-03-01T04:36:51;23.60;;;15.47;;
6113;SDS011;3087;48.392;10.836;2023-03-01T04:39:17;20.87;;;15.80;;
6113;SDS011;3087;48.392;10.836;2023-03-01T04:41:43;21.73;;;15.27;;
6113;SDS011;3087;48.392;10.836;2023-03-01T04:44:09;20.63;;;16.40;;
6113;SDS011;3087;48.392;10.836;2023-03-01T04:46:35;20.13;;;15.40;;
6113;SDS011;3087;48.392;10.836;2023-03-01T04:49:02;23.07;;;16.47;;
6113;SDS011;3087;48.392;10.836;2023-03-01T04:51:28;22.00;;;16.47;;
6113;SDS011;3087;48.392;10.836;2023-03-01T04:53:54;20.20;;;15.87;;
6113;SDS011;3087;48.392;10.836;2023-03-01T04:56:19;18.83;;;14.33;;
6113;SDS011;3087;48.392;10.836;2023-03-01T04:58:47;21.60;;;15.77;;
6113;SDS011;3087;48.392;10.836;2023-03-01T05:01:17;23.83;;;16.53;;
6113;SDS011;3087;48.392;10.836;2023-03-01T05:03:46;21.10;;;16.03;;
6113;SDS011;3087;48.392;10.836;2023-03-01T05:06:13;23.70;;;16.47;;
6113;SDS011;3087;48.392;10.836;2023-03-01T05:08:39;22.57;;;16.33;;
6113;SDS011;3087;48.392;10.836;2023-03-01T05:11:06;20.77;;;15.47;;
6113;SDS011;3087;48.392;10.836;2023-03-01T05:13:34;21.47;;;15.83;;
6113;SDS011;3087;48.392;10.836;2023-03-01T05:16:01;22.40;;;15.73;;
6113;SDS011;3087;48.392;10.836;2023-03-01T05:18:29;21.67;;;16.03;;
6113;SDS011;3087;48.392;10.836;2023-03-01T05:21:01;25.97;;;15.87;;
6113;SDS011;3087;48.392;10.836;2023-03-01T05:23:32;21.63;;;15.37;;
6113;SDS011;3087;48.392;10.836;2023-03-01T05:25:59;21.23;;;15.60;;
6113;SDS011;3087;48.392;10.836;2023-03-01T05:28:26;22.63;;;15.77;;
6113;SDS011;3087;48.392;10.836;2023-03-01T05:30:56;21.87;;;16.30;;
6113;SDS011;3087;48.392;10.836;2023-03-01T05:33:22;23.60;;;17.10;;
6113;SDS011;3087;48.392;10.836;2023-03-01T05:35:49;22.97;;;17.70;;
6113;SDS011;3087;48.392;10.836;2023-03-01T05:38:16;22.67;;;16.90;;
6113;SDS011;3087;48.392;10.836;2023-03-01T05:40:43;23.07;;;17.63;;
6113;SDS011;3087;48.392;10.836;2023-03-01T05:43:11;22.17;;;17.07;;
6113;SDS011;3087;48.392;10.836;2023-03-01T05:45:38;22.20;;;16.20;;
6113;SDS011;3087;48.392;10.836;2023-03-01T05:48:04;27.17;;;17.83;;
6113;SDS011;3087;48.392;10.836;2023-03-01T05:50:32;24.47;;;16.53;;
6113;SDS011;3087;48.392;10.836;2023-03-01T05:53:01;23.80;;;17.33;;
6113;SDS011;3087;48.392;10.836;2023-03-01T05:55:30;30.00;;;17.80;;
6113;SDS011;3087;48.392;10.836;2023-03-01T05:58:04;24.87;;;17.53;;
6113;SDS011;3087;48.392;10.836;2023-03-01T06:00:32;24.47;;;17.73;;
6113;SDS011;3087;48.392;10.836;2023-03-01T06:02:58;22.60;;;17.30;;
6113;SDS011;3087;48.392;10.836;2023-03-01T06:05:24;21.43;;;16.63;;
6113;SDS011;3087;48.392;10.836;2023-03-01T06:07:51;25.17;;;17.47;;
6113;SDS011;3087;48.392;10.836;2023-03-01T06:10:18;26.60;;;17.63;;
6113;SDS011;3087;48.392;10.836;2023-03-01T06:12:46;27.83;;;18.53;;
6113;SDS011;3087;48.392;10.836;2023-03-01T06:15:12;28.53;;;18.43;;
6113;SDS011;3087;48.392;10.836;2023-03-01T06:17:40;25.23;;;17.13;;
6113;SDS011;3087;48.392;10.836;2023-03-01T06:20:08;23.20;;;15.90;;
6113;SDS011;3087;48.392;10.836;2023-03-01T06:22:36;25.27;;;16.97;;
6113;SDS011;3087;48.392;10.836;2023-03-01T06:25:04;23.47;;;17.13;;
6113;SDS011;3087;48.392;10.836;2023-03-01T06:27:30;26.93;;;18.33;;
6113;SDS011;3087;48.392;10.836;2023-03-01T06:29:56;24.10;;;16.90;;
6113;SDS011;3087;48.392;10.836;2023-03-01T06:32:22;24.50;;;17.13;;
6113;SDS011;3087;48.392;10.836;2023-03-01T06:34:47;29.23;;;18.83;;
6113;SDS011;3087;48.392;10.836;2023-03-01T06:37:13;28.30;;;18.00;;
6113;SDS011;3087;48.392;10.836;2023-03-01T06:39:38;29.37;;;18.70;;
6113;SDS011;3087;48.392;10.836;2023-03-01T06:42:04;23.60;;;16.93;;
6113;SDS011;3087;48.392;10.836;2023-03-01T06:44:30;27.37;;;18.93;;
6113;SDS011;3087;48.392;10.836;2023-03-01T06:46:55;26.87;;;18.07;;
6113;SDS011;3087;48.392;10.836;2023-03-01T06:49:21;26.40;;;17.80;;
6113;SDS011;3087;48.392;10.836;2023-03-01T06:51:47;27.23;;;17.77;;
6113;SDS011;3087;48.392;10.836;2023-03-01T06:54:12;24.90;;;17.43;;
6113;SDS011;3087;48.392;10.836;2023-03-01T06:56:38;25.37;;;17.00;;
6113;SDS011;3087;48.392;10.836;2023-03-01T06:59:04;27.20;;;18.17;;
6113;SDS011;3087;48.392;10.836;2023-03-01T07:01:30;26.20;;;17.67;;
6113;SDS011;3087;48.392;10.836;2023-03-01T07:03:55;24.93;;;17.73;;
6113;SDS011;3087;48.392;10.836;2023-03-01T07:06:21;22.67;;;16.13;;
6113;SDS011;3087;48.392;10.836;2023-03-01T07:08:47;24.90;;;18.20;;
6113;SDS011;3087;48.392;10.836;2023-03-01T07:11:13;24.00;;;15.60;;
6113;SDS011;3087;48.392;10.836;2023-03-01T07:13:38;26.10;;;18.00;;
6113;SDS011;3087;48.392;10.836;2023-03-01T07:16:04;26.37;;;18.10;;
6113;SDS011;3087;48.392;10.836;2023-03-01T07:18:30;26.60;;;17.00;;
6113;SDS011;3087;48.392;10.836;2023-03-01T07:20:55;25.40;;;16.80;;
6113;SDS011;3087;48.392;10.836;2023-03-01T07:23:21;25.17;;;18.87;;
6113;SDS011;3087;48.392;10.836;2023-03-01T07:25:56;25.63;;;17.73;;
6113;SDS011;3087;48.392;10.836;2023-03-01T07:28:24;25.57;;;16.77;;
6113;SDS011;3087;48.392;10.836;2023-03-01T07:30:50;25.37;;;17.20;;
6113;SDS011;3087;48.392;10.836;2023-03-01T07:33:16;28.33;;;19.20;;
6113;SDS011;3087;48.392;10.836;2023-03-01T07:35:42;27.63;;;18.77;;
6113;SDS011;3087;48.392;10.836;2023-03-01T07:38:07;27.93;;;16.67;;
6113;SDS011;3087;48.392;10.836;2023-03-01T07:40:33;25.70;;;17.13;;
6113;SDS011;3087;48.392;10.836;2023-03-01T07:42:59;25.47;;;17.67;;
6113;SDS011;3087;48.392;10.836;2023-03-01T07:45:26;25.57;;;17.03;;
6113;SDS011;3087;48.392;10.836;2023-03-01T07:47:52;28.20;;;18.57;;
6113;SDS011;3087;48.392;10.836;2023-03-01T07:50:18;27.23;;;17.37;;
6113;SDS011;3087;48.392;10.836;2023-03-01T07:52:47;25.33;;;17.07;;
6113;SDS011;3087;48.392;10.836;2023-03-01T07:55:14;24.67;;;18.07;;
6113;SDS011;3087;48.392;10.836;2023-03-01T07:57:41;24.83;;;17.80;;
6113;SDS011;3087;48.392;10.836;2023-03-01T08:00:07;22.80;;;16.07;;
6113;SDS011;3087;48.392;10.836;2023-03-01T08:02:35;23.27;;;16.60;;
6113;SDS011;3087;48.392;10.836;2023-03-01T08:05:01;29.70;;;17.50;;
6113;SDS011;3087;48.392;10.836;2023-03-01T08:07:26;26.30;;;17.70;;
6113;SDS011;3087;48.392;10.836;2023-03-01T08:09:52;25.70;;;17.57;;
6113;SDS011;3087;48.392;10.836;2023-03-01T08:12:18;23.77;;;17.03;;
6113;SDS011;3087;48.392;10.836;2023-03-01T08:14:43;23.10;;;16.23;;
6113;SDS011;3087;48.392;10.836;2023-03-01T08:17:09;28.23;;;17.43;;
6113;SDS011;3087;48.392;10.836;2023-03-01T08:19:34;23.93;;;17.43;;
6113;SDS011;3087;48.392;10.836;2023-03-01T08:22:03;24.70;;;17.87;;
6113;SDS011;3087;48.392;10.836;2023-03-01T08:24:29;23.70;;;17.23;;
6113;SDS011;3087;48.392;10.836;2023-03-01T08:26:54;25.87;;;18.07;;
6113;SDS011;3087;48.392;10.836;2023-03-01T08:29:20;23.03;;;16.33;;
6113;SDS011;3087;48.392;10.836;2023-03-01T08:31:46;22.57;;;15.63;;
6113;SDS011;3087;48.392;10.836;2023-03-01T08:34:13;26.37;;;17.60;;
6113;SDS011;3087;48.392;10.836;2023-03-01T08:36:44;22.40;;;16.57;;
6113;SDS011;3087;48.392;10.836;2023-03-01T08:39:12;24.17;;;16.70;;
6113;SDS011;3087;48.392;10.836;2023-03-01T08:41:39;22.67;;;17.80;;
6113;SDS011;3087;48.392;10.836;2023-03-01T08:44:05;23.43;;;16.00;;
6113;SDS011;3087;48.392;10.836;2023-03-01T08:46:34;22.53;;;16.20;;
6113;SDS011;3087;48.392;10.836;2023-03-01T08:49:05;26.27;;;17.57;;
6113;SDS011;3087;48.392;10.836;2023-03-01T08:51:31;23.43;;;16.83;;
6113;SDS011;3087;48.392;10.836;2023-03-01T08:54:01;54.47;;;23.70;;
6113;SDS011;3087;48.392;10.836;2023-03-01T08:56:46;27.20;;;16.80;;
6113;SDS011;3087;48.392;10.836;2023-03-01T08:59:13;20.97;;;16.27;;
6113;SDS011;3087;48.392;10.836;2023-03-01T09:01:40;24.97;;;17.53;;
6113;SDS011;3087;48.392;10.836;2023-03-01T09:04:08;23.00;;;16.43;;
6113;SDS011;3087;48.392;10.836;2023-03-01T09:06:34;23.93;;;17.93;;
6113;SDS011;3087;48.392;10.836;2023-03-01T09:09:00;24.53;;;17.90;;
6113;SDS011;3087;48.392;10.836;2023-03-01T09:11:27;26.10;;;17.70;;
6113;SDS011;3087;48.392;10.836;2023-03-01T09:13:53;27.80;;;17.90;;
6113;SDS011;3087;48.392;10.836;2023-03-01T09:16:19;39.33;;;17.67;;
6113;SDS011;3087;48.392;10.836;2023-03-01T09:18:50;24.57;;;17.67;;
6113;SDS011;3087;48.392;10.836;2023-03-01T09:21:18;28.03;;;16.53;;
6113;SDS011;3087;48.392;10.836;2023-03-01T09:23:46;23.30;;;16.77;;
6113;SDS011;3087;48.392;10.836;2023-03-01T09:26:13;24.93;;;17.07;;
6113;SDS011;3087;48.392;10.836;2023-03-01T09:28:47;24.00;;;17.10;;
6113;SDS011;3087;48.392;10.836;2023-03-01T09:31:15;25.27;;;17.33;;
6113;SDS011;3087;48.392;10.836;2023-03-01T09:33:42;29.93;;;19.17;;
6113;SDS011;3087;48.392;10.836;2023-03-01T09:36:11;22.93;;;16.57;;
6113;SDS011;3087;48.392;10.836;2023-03-01T09:38:38;23.10;;;17.77;;
6113;SDS011;3087;48.392;10.836;2023-03-01T09:41:09;22.30;;;16.63;;
6113;SDS011;3087;48.392;10.836;2023-03-01T09:43:52;30.83;;;17.80;;
6113;SDS011;3087;48.392;10.836;2023-03-01T09:46:24;23.80;;;17.97;;
6113;SDS011;3087;48.392;10.836;2023-03-01T09:48:53;25.93;;;16.93;;
6113;SDS011;3087;48.392;10.836;2023-03-01T09:51:24;27.73;;;16.97;;
6113;SDS011;3087;48.392;10.836;2023-03-01T09:53:55;23.83;;;17.07;;
6113;SDS011;3087;48.392;10.836;2023-03-01T09:56:31;23.93;;;18.50;;
6113;SDS011;3087;48.392;10.836;2023-03-01T10:09:55;22.27;;;16.83;;
6113;SDS011;3087;48.392;10.836;2023-03-01T10:12:23;25.37;;;17.07;;
6113;SDS011;3087;48.392;10.836;2023-03-01T10:15:05;25.10;;;17.90;;
6113;SDS011;3087;48.392;10.836;2023-03-01T10:22:45;21.60;;;16.87;;
6113;SDS011;3087;48.392;10.836;2023-03-01T10:25:15;23.20;;;16.03;;
6113;SDS011;3087;48.392;10.836;2023-03-01T10:27:52;22.40;;;16.33;;
6113;SDS011;3087;48.392;10.836;2023-03-01T10:30:34;21.45;;;16.17;;
6113;SDS011;3087;48.392;10.836;2023-03-01T10:33:04;20.75;;;16.48;;
6113;SDS011;3087;48.392;10.836;2023-03-01T10:35:49;21.17;;;16.75;;
6113;SDS011;3087;48.392;10.836;2023-03-01T10:38:16;25.65;;;18.10;;
6113;SDS011;3087;48.392;10.836;2023-03-01T10:43:43;17.60;;;15.02;;
6113;SDS011;3087;48.392;10.836;2023-03-01T10:49:21;19.52;;;16.60;;
6113;SDS011;3087;48.392;10.836;2023-03-01T10:51:49;37.47;;;25.08;;
6113;SDS011;3087;48.392;10.836;2023-03-01T10:54:23;27.15;;;21.10;;
6113;SDS011;3087;48.392;10.836;2023-03-01T10:56:53;20.65;;;16.15;;
6113;SDS011;3087;48.392;10.836;2023-03-01T10:59:31;18.65;;;16.10;;
6113;SDS011;3087;48.392;10.836;2023-03-01T11:02:13;18.30;;;15.55;;
6113;SDS011;3087;48.392;10.836;2023-03-01T11:05:02;18.58;;;16.08;;
6113;SDS011;3087;48.392;10.836;2023-03-01T11:07:50;19.45;;;16.70;;
6113;SDS011;3087;48.392;10.836;2023-03-01T11:10:36;18.60;;;16.33;;
6113;SDS011;3087;48.392;10.836;2023-03-01T11:13:06;19.52;;;15.98;;
6113;SDS011;3087;48.392;10.836;2023-03-01T11:15:32;18.10;;;15.93;;
6113;SDS011;3087;48.392;10.836;2023-03-01T11:17:57;21.55;;;16.67;;
6113;SDS011;3087;48.392;10.836;2023-03-01T11:20:25;20.13;;;16.45;;
6113;SDS011;3087;48.392;10.836;2023-03-01T11:22:59;22.17;;;17.98;;
6113;SDS011;3087;48.392;10.836;2023-03-01T11:25:32;18.15;;;16.02;;
6113;SDS011;3087;48.392;10.836;2023-03-01T11:28:05;22.55;;;17.05;;
6113;SDS011;3087;48.392;10.836;2023-03-01T11:30:40;23.45;;;16.08;;
6113;SDS011;3087;48.392;10.836;2023-03-01T11:33:24;20.48;;;16.95;;
6113;SDS011;3087;48.392;10.836;2023-03-01T11:39:03;20.15;;;15.80;;
6113;SDS011;3087;48.392;10.836;2023-03-01T11:41:48;18.23;;;15.68;;
6113;SDS011;3087;48.392;10.836;2023-03-01T11:44:27;21.75;;;15.82;;
6113;SDS011;3087;48.392;10.836;2023-03-01T11:50:02;19.10;;;15.98;;
6113;SDS011;3087;48.392;10.836;2023-03-01T11:55:41;16.88;;;15.05;;
6113;SDS011;3087;48.392;10.836;2023-03-01T12:00:57;18.00;;;14.23;;
6113;SDS011;3087;48.392;10.836;2023-03-01T12:14:39;17.77;;;14.82;;
6113;SDS011;3087;48.392;10.836;2023-03-01T12:22:16;20.33;;;15.00;;
6113;SDS011;3087;48.392;10.836;2023-03-01T12:36:10;16.50;;;13.85;;
6113;SDS011;3087;48.392;10.836;2023-03-01T12:45:44;18.27;;;14.43;;
6113;SDS011;3087;48.392;10.836;2023-03-01T12:51:03;17.38;;;15.52;;
6113;SDS011;3087;48.392;10.836;2023-03-01T12:53:34;16.67;;;13.77;;
6113;SDS011;3087;48.392;10.836;2023-03-01T12:56:08;17.65;;;15.30;;
6113;SDS011;3087;48.392;10.836;2023-03-01T13:07:11;18.35;;;14.77;;
6113;SDS011;3087;48.392;10.836;2023-03-01T13:09:51;16.75;;;15.05;;
6113;SDS011;3087;48.392;10.836;2023-03-01T13:17:47;19.90;;;14.45;;
6113;SDS011;3087;48.392;10.836;2023-03-01T13:26:19;16.40;;;13.75;;
6113;SDS011;3087;48.392;10.836;2023-03-01T13:31:56;16.30;;;14.55;;
6113;SDS011;3087;48.392;10.836;2023-03-01T13:33:57;14.80;;;13.20;;
6113;SDS011;3087;48.392;10.836;2023-03-01T13:39:02;16.75;;;14.38;;
6113;SDS011;3087;48.392;10.836;2023-03-01T13:46:48;16.58;;;14.35;;
6113;SDS011;3087;48.392;10.836;2023-03-01T13:49:16;16.30;;;13.75;;
6113;SDS011;3087;48.392;10.836;2023-03-01T13:51:48;15.93;;;13.18;;
6113;SDS011;3087;48.392;10.836;2023-03-01T13:54:16;17.92;;;14.02;;
6113;SDS011;3087;48.392;10.836;2023-03-01T13:56:53;18.13;;;14.20;;
6113;SDS011;3087;48.392;10.836;2023-03-01T13:59:20;16.88;;;13.93;;
6113;SDS011;3087;48.392;10.836;2023-03-01T14:01:53;15.30;;;13.27;;
6113;SDS011;3087;48.392;10.836;2023-03-01T14:04:31;14.38;;;12.65;;
6113;SDS011;3087;48.392;10.836;2023-03-01T14:07:16;17.55;;;14.30;;
6113;SDS011;3087;48.392;10.836;2023-03-01T14:09:45;16.00;;;14.00;;
6113;SDS011;3087;48.392;10.836;2023-03-01T14:18:13;15.63;;;13.20;;
6113;SDS011;3087;48.392;10.836;2023-03-01T14:20:45;14.90;;;12.80;;
6113;SDS011;3087;48.392;10.836;2023-03-01T14:23:17;16.50;;;13.90;;
6113;SDS011;3087;48.392;10.836;2023-03-01T14:25:55;16.13;;;13.13;;
6113;SDS011;3087;48.392;10.836;2023-03-01T14:28:26;16.27;;;13.90;;
6113;SDS011;3087;48.392;10.836;2023-03-01T14:30:54;20.63;;;14.45;;
6113;SDS011;3087;48.392;10.836;2023-03-01T14:33:24;18.65;;;14.25;;
6113;SDS011;3087;48.392;10.836;2023-03-01T14:38:23;15.25;;;13.55;;
6113;SDS011;3087;48.392;10.836;2023-03-01T14:41:00;16.60;;;13.88;;
6113;SDS011;3087;48.392;10.836;2023-03-01T14:43:29;19.38;;;14.30;;
6113;SDS011;3087;48.392;10.836;2023-03-01T14:45:55;20.65;;;14.65;;
6113;SDS011;3087;48.392;10.836;2023-03-01T14:48:22;20.13;;;14.13;;
6113;SDS011;3087;48.392;10.836;2023-03-01T14:50:48;18.33;;;14.18;;
6113;SDS011;3087;48.392;10.836;2023-03-01T14:53:19;16.85;;;14.20;;
6113;SDS011;3087;48.392;10.836;2023-03-01T14:55:49;15.75;;;13.38;;
6113;SDS011;3087;48.392;10.836;2023-03-01T14:58:19;18.02;;;14.48;;
6113;SDS011;3087;48.392;10.836;2023-03-01T15:00:48;15.77;;;13.65;;
6113;SDS011;3087;48.392;10.836;2023-03-01T15:03:23;19.30;;;14.80;;
6113;SDS011;3087;48.392;10.836;2023-03-01T15:06:04;17.40;;;13.73;;
6113;SDS011;3087;48.392;10.836;2023-03-01T15:08:31;18.50;;;14.35;;
6113;SDS011;3087;48.392;10.836;2023-03-01T15:13:42;17.92;;;14.07;;
6113;SDS011;3087;48.392;10.836;2023-03-01T15:18:46;21.98;;;14.55;;
6113;SDS011;3087;48.392;10.836;2023-03-01T15:23:55;19.52;;;15.13;;
6113;SDS011;3087;48.392;10.836;2023-03-01T15:26:43;20.03;;;15.03;;
6113;SDS011;3087;48.392;10.836;2023-03-01T15:29:15;15.45;;;13.40;;
6113;SDS011;3087;48.392;10.836;2023-03-01T15:31:43;18.90;;;14.43;;
6113;SDS011;3087;48.392;10.836;2023-03-01T15:36:51;17.33;;;14.20;;
6113;SDS011;3087;48.392;10.836;2023-03-01T15:39:38;20.03;;;15.60;;
6113;SDS011;3087;48.392;10.836;2023-03-01T15:44:31;15.90;;;13.15;;
6113;SDS011;3087;48.392;10.836;2023-03-01T15:46:59;18.57;;;12.90;;
6113;SDS011;3087;48.392;10.836;2023-03-01T15:49:34;18.80;;;13.60;;
6113;SDS011;3087;48.392;10.836;2023-03-01T15:52:03;18.20;;;13.83;;
6113;SDS011;3087;48.392;10.836;2023-03-01T15:54:30;17.57;;;13.10;;
6113;SDS011;3087;48.392;10.836;2023-03-01T15:56:56;16.63;;;13.50;;
6113;SDS011;3087;48.392;10.836;2023-03-01T15:59:21;18.73;;;13.27;;
6113;SDS011;3087;48.392;10.836;2023-03-01T16:01:48;15.67;;;12.30;;
6113;SDS011;3087;48.392;10.836;2023-03-01T16:04:14;18.87;;;14.00;;
6113;SDS011;3087;48.392;10.836;2023-03-01T16:06:48;15.57;;;13.00;;
6113;SDS011;3087;48.392;10.836;2023-03-01T16:09:19;15.53;;;12.73;;
6113;SDS011;3087;48.392;10.836;2023-03-01T16:11:47;18.63;;;13.93;;
6113;SDS011;3087;48.392;10.836;2023-03-01T16:14:13;16.57;;;13.80;;
6113;SDS011;3087;48.392;10.836;2023-03-01T16:16:39;18.80;;;14.63;;
6113;SDS011;3087;48.392;10.836;2023-03-01T16:19:05;17.83;;;13.33;;
6113;SDS011;3087;48.392;10.836;2023-03-01T16:21:30;19.10;;;14.13;;
6113;SDS011;3087;48.392;10.836;2023-03-01T16:23:56;16.67;;;12.93;;
6113;SDS011;3087;48.392;10.836;2023-03-01T16:26:21;18.67;;;13.70;;
6113;SDS011;3087;48.392;10.836;2023-03-01T16:28:47;19.70;;;13.87;;
6113;SDS011;3087;48.392;10.836;2023-03-01T16:31:16;18.97;;;13.30;;
6113;SDS011;3087;48.392;10.836;2023-03-01T16:33:43;17.70;;;13.53;;
6113;SDS011;3087;48.392;10.836;2023-03-01T16:36:14;18.27;;;12.67;;
6113;SDS011;3087;48.392;10.836;2023-03-01T16:38:41;17.13;;;13.77;;
6113;SDS011;3087;48.392;10.836;2023-03-01T16:41:14;18.77;;;12.90;;
6113;SDS011;3087;48.392;10.836;2023-03-01T16:43:42;26.20;;;15.43;;
6113;SDS011;3087;48.392;10.836;2023-03-01T16:46:11;20.97;;;13.73;;
6113;SDS011;3087;48.392;10.836;2023-03-01T16:48:46;20.97;;;14.27;;
6113;SDS011;3087;48.392;10.836;2023-03-01T16:51:12;16.57;;;13.07;;
6113;SDS011;3087;48.392;10.836;2023-03-01T16:53:38;17.40;;;12.83;;
6113;SDS011;3087;48.392;10.836;2023-03-01T16:56:06;18.33;;;13.60;;
6113;SDS011;3087;48.392;10.836;2023-03-01T16:58:34;16.67;;;13.43;;